sensor_id;sensor_type;location;lat;lon;timestamp;P1;durP1;ratioP1;P2;durP2;ratioP2
12784;SDS011;6456;42.680;23.260;2023-03-04T00:00:00;13.77;;;10.37;;
12784;SDS011;6456;42.680;23.260;2023-03-04T00:02:32;12.90;;;10.90;;
12784;SDS011;6456;42.680;23.260;2023-03-04T00:04:58;13.03;;;11.57;;
12784;SDS011;6456;42.680;23.260;2023-03-04T00:07:27;13.13;;;10.67;;
12784;SDS011;6456;42.680;23.260;2023-03-04T00:09:54;14.93;;;11.63;;
12784;SDS011;6456;42.680;23.260;2023-03-04T00:12:21;14.67;;;11.43;;
12784;SDS011;6456;42.680;23.260;2023-03-04T00:14:48;14.17;;;11.93;;
12784;SDS011;6456;42.680;23.260;2023-03-04T00:17:15;14.50;;;11.90;;
12784;SDS011;6456;42.680;23.260;2023-03-04T00:19:43;13.23;;;11.70;;
12784;SDS011;6456;42.680;23.260;2023-03-04T00:22:10;12.37;;;10.30;;
12784;SDS011;6456;42.680;23.260;2023-03-04T00:24:37;14.80;;;10.67;;
12784;SDS011;6456;42.680;23.260;2023-03-04T00:27:04;13.73;;;10.87;;
12784;SDS011;6456;42.680;23.260;2023-03-04T00:29:31;13.23;;;10.23;;
12784;SDS011;6456;42.680;23.260;2023-03-04T00:31:58;12.73;;;10.80;;
12784;SDS011;6456;42.680;23.260;2023-03-04T00:34:25;12.70;;;11.20;;
12784;SDS011;6456;42.680;23.260;2023-03-04T00:36:53;13.17;;;10.50;;
12784;SDS011;6456;42.680;23.260;2023-03-04T00:39:25;13.97;;;11.53;;
12784;SDS011;6456;42.680;23.260;2023-03-04T00:41:52;12.73;;;10.67;;
12784;SDS011;6456;42.680;23.260;2023-03-04T00:44:19;14.03;;;11.13;;
12784;SDS011;6456;42.680;23.260;2023-03-04T00:46:46;12.90;;;10.93;;
12784;SDS011;6456;42.680;23.260;2023-03-04T00:49:13;13.90;;;10.43;;
12784;SDS011;6456;42.680;23.260;2023-03-04T00:51:40;12.87;;;10.83;;
12784;SDS011;6456;42.680;23.260;2023-03-04T00:54:08;13.30;;;10.63;;
12784;SDS011;6456;42.680;23.260;2023-03-04T00:56:35;12.37;;;10.33;;
12784;SDS011;6456;42.680;23.260;2023-03-04T00:59:02;13.57;;;10.50;;
12784;SDS011;6456;42.680;23.260;2023-03-04T01:01:29;13.00;;;10.60;;
12784;SDS011;6456;42.680;23.260;2023-03-04T01:03:56;12.77;;;10.40;;
12784;SDS011;6456;42.680;23.260;2023-03-04T01:06:26;14.70;;;11.17;;
12784;SDS011;6456;42.680;23.260;2023-03-04T01:08:53;13.87;;;10.67;;
12784;SDS011;6456;42.680;23.260;2023-03-04T01:11:21;13.37;;;11.37;;
12784;SDS011;6456;42.680;23.260;2023-03-04T01:13:48;14.00;;;11.53;;
12784;SDS011;6456;42.680;23.260;2023-03-04T01:16:15;13.43;;;10.93;;
12784;SDS011;6456;42.680;23.260;2023-03-04T01:18:42;16.67;;;11.53;;
12784;SDS011;6456;42.680;23.260;2023-03-04T01:21:16;15.57;;;11.70;;
12784;SDS011;6456;42.680;23.260;2023-03-04T01:23:43;14.13;;;10.97;;
12784;SDS011;6456;42.680;23.260;2023-03-04T01:26:10;12.83;;;10.93;;
12784;SDS011;6456;42.680;23.260;2023-03-04T01:28:39;13.30;;;10.47;;
12784;SDS011;6456;42.680;23.260;2023-03-04T01:31:05;12.80;;;10.67;;
12784;SDS011;6456;42.680;23.260;2023-03-04T01:33:32;14.60;;;11.07;;
12784;SDS011;6456;42.680;23.260;2023-03-04T01:35:59;12.23;;;10.13;;
12784;SDS011;6456;42.680;23.260;2023-03-04T01:38:26;11.97;;;9.93;;
12784;SDS011;6456;42.680;23.260;2023-03-04T01:40:54;12.13;;;9.93;;
12784;SDS011;6456;42.680;23.260;2023-03-04T01:43:26;11.57;;;9.87;;
12784;SDS011;6456;42.680;23.260;2023-03-04T01:45:55;12.13;;;10.27;;
12784;SDS011;6456;42.680;23.260;2023-03-04T01:48:24;14.23;;;10.17;;
12784;SDS011;6456;42.680;23.260;2023-03-04T01:50:52;12.10;;;9.90;;
12784;SDS011;6456;42.680;23.260;2023-03-04T01:53:21;13.73;;;10.37;;
12784;SDS011;6456;42.680;23.260;2023-03-04T01:55:50;13.10;;;10.07;;
12784;SDS011;6456;42.680;23.260;2023-03-04T01:58:18;13.00;;;10.43;;
12784;SDS011;6456;42.680;23.260;2023-03-04T02:00:46;14.37;;;10.03;;
12784;SDS011;6456;42.680;23.260;2023-03-04T02:03:14;12.27;;;10.37;;
12784;SDS011;6456;42.680;23.260;2023-03-04T02:05:46;13.73;;;10.27;;
12784;SDS011;6456;42.680;23.260;2023-03-04T02:08:15;12.90;;;10.37;;
12784;SDS011;6456;42.680;23.260;2023-03-04T02:10:44;12.67;;;10.90;;
12784;SDS011;6456;42.680;23.260;2023-03-04T02:13:11;13.63;;;10.70;;
12784;SDS011;6456;42.680;23.260;2023-03-04T02:15:40;13.63;;;10.60;;
12784;SDS011;6456;42.680;23.260;2023-03-04T02:18:12;14.23;;;11.27;;
12784;SDS011;6456;42.680;23.260;2023-03-04T02:20:44;16.53;;;11.10;;
12784;SDS011;6456;42.680;23.260;2023-03-04T02:23:21;12.57;;;10.23;;
12784;SDS011;6456;42.680;23.260;2023-03-04T02:28:32;13.20;;;11.07;;
12784;SDS011;6456;42.680;23.260;2023-03-04T02:30:59;14.33;;;11.47;;
12784;SDS011;6456;42.680;23.260;2023-03-04T02:33:29;14.00;;;11.20;;
12784;SDS011;6456;42.680;23.260;2023-03-04T02:35:57;13.70;;;10.90;;
12784;SDS011;6456;42.680;23.260;2023-03-04T02:38:24;14.77;;;11.70;;
12784;SDS011;6456;42.680;23.260;2023-03-04T02:40:51;14.33;;;10.63;;
12784;SDS011;6456;42.680;23.260;2023-03-04T02:43:22;14.93;;;11.97;;
12784;SDS011;6456;42.680;23.260;2023-03-04T02:45:49;13.50;;;10.73;;
12784;SDS011;6456;42.680;23.260;2023-03-04T02:48:18;14.17;;;11.60;;
12784;SDS011;6456;42.680;23.260;2023-03-04T02:50:47;13.70;;;10.90;;
12784;SDS011;6456;42.680;23.260;2023-03-04T02:53:15;12.10;;;10.50;;
12784;SDS011;6456;42.680;23.260;2023-03-04T02:55:42;14.10;;;10.40;;
12784;SDS011;6456;42.680;23.260;2023-03-04T02:58:10;13.60;;;11.23;;
12784;SDS011;6456;42.680;23.260;2023-03-04T03:00:40;13.73;;;11.03;;
12784;SDS011;6456;42.680;23.260;2023-03-04T03:03:07;13.47;;;10.53;;
12784;SDS011;6456;42.680;23.260;2023-03-04T03:05:34;12.60;;;9.73;;
12784;SDS011;6456;42.680;23.260;2023-03-04T03:08:01;13.37;;;10.33;;
12784;SDS011;6456;42.680;23.260;2023-03-04T03:10:29;12.97;;;10.90;;
12784;SDS011;6456;42.680;23.260;2023-03-04T03:12:56;13.47;;;10.17;;
12784;SDS011;6456;42.680;23.260;2023-03-04T03:15:23;15.53;;;10.90;;
12784;SDS011;6456;42.680;23.260;2023-03-04T03:17:52;13.40;;;10.03;;
12784;SDS011;6456;42.680;23.260;2023-03-04T03:20:19;15.17;;;10.57;;
12784;SDS011;6456;42.680;23.260;2023-03-04T03:22:46;16.70;;;11.40;;
12784;SDS011;6456;42.680;23.260;2023-03-04T03:25:13;15.27;;;10.83;;
12784;SDS011;6456;42.680;23.260;2023-03-04T03:27:42;15.30;;;11.40;;
12784;SDS011;6456;42.680;23.260;2023-03-04T03:30:10;14.90;;;11.00;;
12784;SDS011;6456;42.680;23.260;2023-03-04T03:32:38;14.30;;;10.93;;
12784;SDS011;6456;42.680;23.260;2023-03-04T03:35:07;14.50;;;10.83;;
12784;SDS011;6456;42.680;23.260;2023-03-04T03:37:34;15.40;;;11.37;;
12784;SDS011;6456;42.680;23.260;2023-03-04T03:40:01;15.03;;;11.57;;
12784;SDS011;6456;42.680;23.260;2023-03-04T03:42:28;14.93;;;11.63;;
12784;SDS011;6456;42.680;23.260;2023-03-04T03:44:55;13.83;;;10.87;;
12784;SDS011;6456;42.680;23.260;2023-03-04T03:47:22;16.17;;;11.57;;
12784;SDS011;6456;42.680;23.260;2023-03-04T03:49:49;14.83;;;11.53;;
12784;SDS011;6456;42.680;23.260;2023-03-04T03:52:17;14.63;;;11.13;;
12784;SDS011;6456;42.680;23.260;2023-03-04T03:54:44;14.07;;;11.30;;
12784;SDS011;6456;42.680;23.260;2023-03-04T03:57:11;17.80;;;13.00;;
12784;SDS011;6456;42.680;23.260;2023-03-04T03:59:38;16.30;;;12.03;;
12784;SDS011;6456;42.680;23.260;2023-03-04T04:02:04;18.70;;;13.27;;
12784;SDS011;6456;42.680;23.260;2023-03-04T04:04:31;18.83;;;13.63;;
12784;SDS011;6456;42.680;23.260;2023-03-04T04:06:58;15.77;;;12.07;;
12784;SDS011;6456;42.680;23.260;2023-03-04T04:09:26;13.93;;;11.83;;
12784;SDS011;6456;42.680;23.260;2023-03-04T04:11:53;16.13;;;13.30;;
12784;SDS011;6456;42.680;23.260;2023-03-04T04:14:20;17.17;;;13.13;;
12784;SDS011;6456;42.680;23.260;2023-03-04T04:16:47;17.53;;;13.73;;
12784;SDS011;6456;42.680;23.260;2023-03-04T04:19:17;16.83;;;13.53;;
12784;SDS011;6456;42.680;23.260;2023-03-04T04:21:45;17.47;;;13.20;;
12784;SDS011;6456;42.680;23.260;2023-03-04T04:24:12;17.00;;;13.33;;
12784;SDS011;6456;42.680;23.260;2023-03-04T04:26:48;17.30;;;13.07;;
12784;SDS011;6456;42.680;23.260;2023-03-04T04:29:16;19.77;;;13.97;;
12784;SDS011;6456;42.680;23.260;2023-03-04T04:31:42;18.43;;;13.50;;
12784;SDS011;6456;42.680;23.260;2023-03-04T04:34:10;16.63;;;13.63;;
12784;SDS011;6456;42.680;23.260;2023-03-04T04:36:36;16.30;;;12.60;;
12784;SDS011;6456;42.680;23.260;2023-03-04T04:39:03;18.90;;;13.40;;
12784;SDS011;6456;42.680;23.260;2023-03-04T04:41:31;16.43;;;12.47;;
12784;SDS011;6456;42.680;23.260;2023-03-04T04:44:03;15.23;;;12.03;;
12784;SDS011;6456;42.680;23.260;2023-03-04T04:46:30;16.50;;;11.70;;
12784;SDS011;6456;42.680;23.260;2023-03-04T04:48:58;15.03;;;11.30;;
12784;SDS011;6456;42.680;23.260;2023-03-04T04:51:25;18.10;;;11.47;;
12784;SDS011;6456;42.680;23.260;2023-03-04T04:53:52;15.13;;;11.43;;
12784;SDS011;6456;42.680;23.260;2023-03-04T04:56:20;15.57;;;10.87;;
12784;SDS011;6456;42.680;23.260;2023-03-04T04:58:49;12.60;;;9.77;;
12784;SDS011;6456;42.680;23.260;2023-03-04T05:01:17;13.80;;;10.00;;
12784;SDS011;6456;42.680;23.260;2023-03-04T05:03:44;12.23;;;9.33;;
12784;SDS011;6456;42.680;23.260;2023-03-04T05:06:11;10.40;;;8.80;;
12784;SDS011;6456;42.680;23.260;2023-03-04T05:08:38;11.03;;;9.03;;
12784;SDS011;6456;42.680;23.260;2023-03-04T05:11:05;10.13;;;9.00;;
12784;SDS011;6456;42.680;23.260;2023-03-04T05:13:33;11.07;;;8.90;;
12784;SDS011;6456;42.680;23.260;2023-03-04T05:16:01;10.60;;;8.73;;
12784;SDS011;6456;42.680;23.260;2023-03-04T05:18:29;11.50;;;9.17;;
12784;SDS011;6456;42.680;23.260;2023-03-04T05:20:57;13.37;;;9.33;;
12784;SDS011;6456;42.680;23.260;2023-03-04T05:23:26;12.47;;;9.60;;
12784;SDS011;6456;42.680;23.260;2023-03-04T05:25:54;11.93;;;8.77;;
12784;SDS011;6456;42.680;23.260;2023-03-04T05:28:22;11.30;;;9.20;;
12784;SDS011;6456;42.680;23.260;2023-03-04T05:30:49;11.67;;;9.57;;
12784;SDS011;6456;42.680;23.260;2023-03-04T05:33:16;14.20;;;11.17;;
12784;SDS011;6456;42.680;23.260;2023-03-04T05:35:45;14.83;;;12.03;;
12784;SDS011;6456;42.680;23.260;2023-03-04T05:38:14;18.40;;;13.17;;
12784;SDS011;6456;42.680;23.260;2023-03-04T05:40:42;19.47;;;16.30;;
12784;SDS011;6456;42.680;23.260;2023-03-04T05:43:10;19.90;;;15.80;;
12784;SDS011;6456;42.680;23.260;2023-03-04T05:45:37;23.10;;;17.73;;
12784;SDS011;6456;42.680;23.260;2023-03-04T05:48:04;19.90;;;15.67;;
12784;SDS011;6456;42.680;23.260;2023-03-04T05:50:32;19.93;;;15.70;;
12784;SDS011;6456;42.680;23.260;2023-03-04T05:53:01;15.77;;;13.27;;
12784;SDS011;6456;42.680;23.260;2023-03-04T05:55:28;20.47;;;14.60;;
12784;SDS011;6456;42.680;23.260;2023-03-04T05:57:55;16.93;;;13.83;;
12784;SDS011;6456;42.680;23.260;2023-03-04T06:00:22;19.20;;;14.07;;
12784;SDS011;6456;42.680;23.260;2023-03-04T06:02:49;18.07;;;14.20;;
12784;SDS011;6456;42.680;23.260;2023-03-04T06:05:16;16.97;;;13.33;;
12784;SDS011;6456;42.680;23.260;2023-03-04T06:07:44;17.93;;;13.17;;
12784;SDS011;6456;42.680;23.260;2023-03-04T06:10:12;13.67;;;10.53;;
12784;SDS011;6456;42.680;23.260;2023-03-04T06:12:41;15.97;;;10.70;;
12784;SDS011;6456;42.680;23.260;2023-03-04T06:15:08;14.30;;;10.40;;
12784;SDS011;6456;42.680;23.260;2023-03-04T06:17:36;15.13;;;11.10;;
12784;SDS011;6456;42.680;23.260;2023-03-04T06:20:04;17.43;;;12.17;;
12784;SDS011;6456;42.680;23.260;2023-03-04T06:22:31;19.13;;;13.07;;
12784;SDS011;6456;42.680;23.260;2023-03-04T06:24:58;18.13;;;12.47;;
12784;SDS011;6456;42.680;23.260;2023-03-04T06:27:27;18.27;;;12.67;;
12784;SDS011;6456;42.680;23.260;2023-03-04T06:29:54;20.13;;;13.80;;
12784;SDS011;6456;42.680;23.260;2023-03-04T06:32:21;19.93;;;13.70;;
12784;SDS011;6456;42.680;23.260;2023-03-04T06:34:47;15.60;;;12.30;;
12784;SDS011;6456;42.680;23.260;2023-03-04T06:37:14;19.27;;;13.57;;
12784;SDS011;6456;42.680;23.260;2023-03-04T06:39:41;18.20;;;13.37;;
12784;SDS011;6456;42.680;23.260;2023-03-04T06:42:09;17.50;;;13.03;;
12784;SDS011;6456;42.680;23.260;2023-03-04T06:44:39;18.73;;;14.07;;
12784;SDS011;6456;42.680;23.260;2023-03-04T06:47:06;28.60;;;20.80;;
12784;SDS011;6456;42.680;23.260;2023-03-04T06:49:33;24.30;;;20.93;;
12784;SDS011;6456;42.680;23.260;2023-03-04T06:52:00;19.43;;;14.10;;
12784;SDS011;6456;42.680;23.260;2023-03-04T06:54:29;15.10;;;10.23;;
12784;SDS011;6456;42.680;23.260;2023-03-04T06:56:56;12.13;;;9.57;;
12784;SDS011;6456;42.680;23.260;2023-03-04T06:59:23;10.13;;;8.40;;
12784;SDS011;6456;42.680;23.260;2023-03-04T07:01:51;13.27;;;8.20;;
12784;SDS011;6456;42.680;23.260;2023-03-04T07:04:18;10.07;;;8.23;;
12784;SDS011;6456;42.680;23.260;2023-03-04T07:06:46;9.90;;;8.47;;
12784;SDS011;6456;42.680;23.260;2023-03-04T07:09:14;11.20;;;8.67;;
12784;SDS011;6456;42.680;23.260;2023-03-04T07:11:41;14.07;;;9.03;;
12784;SDS011;6456;42.680;23.260;2023-03-04T07:14:08;14.53;;;9.20;;
12784;SDS011;6456;42.680;23.260;2023-03-04T07:16:35;12.80;;;9.13;;
12784;SDS011;6456;42.680;23.260;2023-03-04T07:19:03;11.73;;;8.23;;
12784;SDS011;6456;42.680;23.260;2023-03-04T07:21:30;13.63;;;8.90;;
12784;SDS011;6456;42.680;23.260;2023-03-04T07:23:57;9.00;;;7.67;;
12784;SDS011;6456;42.680;23.260;2023-03-04T07:26:24;8.70;;;7.50;;
12784;SDS011;6456;42.680;23.260;2023-03-04T07:28:51;10.83;;;7.70;;
12784;SDS011;6456;42.680;23.260;2023-03-04T07:31:19;11.37;;;7.53;;
12784;SDS011;6456;42.680;23.260;2023-03-04T07:33:48;11.97;;;7.93;;
12784;SDS011;6456;42.680;23.260;2023-03-04T07:36:16;11.00;;;7.80;;
12784;SDS011;6456;42.680;23.260;2023-03-04T07:38:44;10.33;;;7.93;;
12784;SDS011;6456;42.680;23.260;2023-03-04T07:41:12;12.57;;;7.90;;
12784;SDS011;6456;42.680;23.260;2023-03-04T07:43:39;10.10;;;8.20;;
12784;SDS011;6456;42.680;23.260;2023-03-04T07:46:06;10.23;;;7.77;;
12784;SDS011;6456;42.680;23.260;2023-03-04T07:48:33;12.37;;;8.47;;
12784;SDS011;6456;42.680;23.260;2023-03-04T07:51:07;12.77;;;8.90;;
12784;SDS011;6456;42.680;23.260;2023-03-04T07:53:37;11.73;;;8.90;;
12784;SDS011;6456;42.680;23.260;2023-03-04T07:56:06;11.33;;;8.10;;
12784;SDS011;6456;42.680;23.260;2023-03-04T07:58:36;13.03;;;9.03;;
12784;SDS011;6456;42.680;23.260;2023-03-04T08:01:07;11.67;;;8.00;;
12784;SDS011;6456;42.680;23.260;2023-03-04T08:03:34;11.67;;;8.10;;
12784;SDS011;6456;42.680;23.260;2023-03-04T08:06:02;12.33;;;7.83;;
12784;SDS011;6456;42.680;23.260;2023-03-04T08:08:30;13.10;;;9.17;;
12784;SDS011;6456;42.680;23.260;2023-03-04T08:10:58;10.63;;;8.80;;
12784;SDS011;6456;42.680;23.260;2023-03-04T08:13:25;12.13;;;9.33;;
12784;SDS011;6456;42.680;23.260;2023-03-04T08:15:54;13.03;;;9.30;;
12784;SDS011;6456;42.680;23.260;2023-03-04T08:18:21;15.20;;;9.37;;
12784;SDS011;6456;42.680;23.260;2023-03-04T08:20:48;13.13;;;8.97;;
12784;SDS011;6456;42.680;23.260;2023-03-04T08:23:15;9.50;;;7.70;;
12784;SDS011;6456;42.680;23.260;2023-03-04T08:25:42;14.73;;;7.90;;
12784;SDS011;6456;42.680;23.260;2023-03-04T08:28:10;11.53;;;8.03;;
12784;SDS011;6456;42.680;23.260;2023-03-04T08:30:37;13.20;;;9.07;;
12784;SDS011;6456;42.680;23.260;2023-03-04T08:33:05;15.00;;;9.33;;
12784;SDS011;6456;42.680;23.260;2023-03-04T08:35:32;10.60;;;7.93;;
12784;SDS011;6456;42.680;23.260;2023-03-04T08:38:02;12.70;;;7.70;;
12784;SDS011;6456;42.680;23.260;2023-03-04T08:40:28;20.47;;;14.70;;
12784;SDS011;6456;42.680;23.260;2023-03-04T08:42:55;12.07;;;7.70;;
12784;SDS011;6456;42.680;23.260;2023-03-04T08:45:23;11.03;;;7.10;;
12784;SDS011;6456;42.680;23.260;2023-03-04T08:47:50;11.73;;;7.30;;
12784;SDS011;6456;42.680;23.260;2023-03-04T08:50:17;13.20;;;7.33;;
12784;SDS011;6456;42.680;23.260;2023-03-04T08:52:45;12.50;;;7.90;;
12784;SDS011;6456;42.680;23.260;2023-03-04T08:55:12;9.07;;;6.57;;
12784;SDS011;6456;42.680;23.260;2023-03-04T08:57:43;9.07;;;6.60;;
12784;SDS011;6456;42.680;23.260;2023-03-04T09:00:10;9.27;;;7.87;;
12784;SDS011;6456;42.680;23.260;2023-03-04T09:02:39;15.57;;;9.27;;
12784;SDS011;6456;42.680;23.260;2023-03-04T09:05:06;10.27;;;6.90;;
12784;SDS011;6456;42.680;23.260;2023-03-04T09:07:34;10.43;;;6.23;;
12784;SDS011;6456;42.680;23.260;2023-03-04T09:10:01;9.23;;;5.30;;
12784;SDS011;6456;42.680;23.260;2023-03-04T09:12:28;7.43;;;5.63;;
12784;SDS011;6456;42.680;23.260;2023-03-04T09:14:54;10.47;;;6.43;;
12784;SDS011;6456;42.680;23.260;2023-03-04T09:17:21;9.27;;;6.10;;
12784;SDS011;6456;42.680;23.260;2023-03-04T09:19:50;9.20;;;6.23;;
12784;SDS011;6456;42.680;23.260;2023-03-04T09:22:17;12.13;;;6.60;;
12784;SDS011;6456;42.680;23.260;2023-03-04T09:24:44;8.37;;;6.20;;
12784;SDS011;6456;42.680;23.260;2023-03-04T09:27:10;8.27;;;6.27;;
12784;SDS011;6456;42.680;23.260;2023-03-04T09:29:37;11.10;;;6.87;;
12784;SDS011;6456;42.680;23.260;2023-03-04T09:32:04;9.17;;;6.53;;
12784;SDS011;6456;42.680;23.260;2023-03-04T09:34:32;8.97;;;7.13;;
12784;SDS011;6456;42.680;23.260;2023-03-04T09:37:00;7.73;;;6.60;;
12784;SDS011;6456;42.680;23.260;2023-03-04T09:39:27;11.10;;;6.73;;
12784;SDS011;6456;42.680;23.260;2023-03-04T09:41:54;10.87;;;6.97;;
12784;SDS011;6456;42.680;23.260;2023-03-04T09:44:25;7.57;;;6.37;;
12784;SDS011;6456;42.680;23.260;2023-03-04T09:46:59;9.90;;;6.63;;
12784;SDS011;6456;42.680;23.260;2023-03-04T09:49:28;9.97;;;6.90;;
12784;SDS011;6456;42.680;23.260;2023-03-04T09:51:58;8.67;;;6.37;;
12784;SDS011;6456;42.680;23.260;2023-03-04T09:54:44;14.03;;;7.47;;
12784;SDS011;6456;42.680;23.260;2023-03-04T09:57:22;8.43;;;7.13;;
12784;SDS011;6456;42.680;23.260;2023-03-04T09:59:59;13.20;;;9.97;;
12784;SDS011;6456;42.680;23.260;2023-03-04T10:02:35;10.13;;;7.53;;
12784;SDS011;6456;42.680;23.260;2023-03-04T10:05:09;12.93;;;8.07;;
12784;SDS011;6456;42.680;23.260;2023-03-04T10:07:42;11.23;;;7.90;;
12784;SDS011;6456;42.680;23.260;2023-03-04T10:10:15;11.40;;;7.93;;
12784;SDS011;6456;42.680;23.260;2023-03-04T10:12:44;12.67;;;8.80;;
12784;SDS011;6456;42.680;23.260;2023-03-04T10:15:17;13.80;;;10.23;;
12784;SDS011;6456;42.680;23.260;2023-03-04T10:17:51;15.03;;;10.93;;
12784;SDS011;6456;42.680;23.260;2023-03-04T10:20:26;12.80;;;10.73;;
12784;SDS011;6456;42.680;23.260;2023-03-04T10:23:01;12.43;;;8.43;;
12784;SDS011;6456;42.680;23.260;2023-03-04T10:25:35;13.27;;;9.23;;
12784;SDS011;6456;42.680;23.260;2023-03-04T10:28:09;13.33;;;8.87;;
12784;SDS011;6456;42.680;23.260;2023-03-04T10:30:43;13.30;;;10.17;;
12784;SDS011;6456;42.680;23.260;2023-03-04T10:33:16;14.83;;;9.47;;
12784;SDS011;6456;42.680;23.260;2023-03-04T10:35:45;12.77;;;9.27;;
12784;SDS011;6456;42.680;23.260;2023-03-04T10:38:17;12.57;;;9.67;;
12784;SDS011;6456;42.680;23.260;2023-03-04T10:40:47;15.77;;;10.47;;
12784;SDS011;6456;42.680;23.260;2023-03-04T10:43:14;15.43;;;8.47;;
12784;SDS011;6456;42.680;23.260;2023-03-04T10:45:42;13.10;;;8.93;;
12784;SDS011;6456;42.680;23.260;2023-03-04T10:48:17;10.20;;;7.07;;
12784;SDS011;6456;42.680;23.260;2023-03-04T10:50:45;11.30;;;8.10;;
12784;SDS011;6456;42.680;23.260;2023-03-04T10:53:21;14.77;;;10.00;;
12784;SDS011;6456;42.680;23.260;2023-03-04T10:55:53;12.07;;;10.23;;
12784;SDS011;6456;42.680;23.260;2023-03-04T10:58:20;14.03;;;10.17;;
12784;SDS011;6456;42.680;23.260;2023-03-04T11:00:51;14.83;;;9.53;;
12784;SDS011;6456;42.680;23.260;2023-03-04T11:03:28;13.97;;;9.90;;
12784;SDS011;6456;42.680;23.260;2023-03-04T11:06:04;12.40;;;9.83;;
12784;SDS011;6456;42.680;23.260;2023-03-04T11:08:43;12.63;;;9.77;;
12784;SDS011;6456;42.680;23.260;2023-03-04T11:11:22;14.67;;;10.50;;
12784;SDS011;6456;42.680;23.260;2023-03-04T11:13:51;14.27;;;10.17;;
12784;SDS011;6456;42.680;23.260;2023-03-04T11:16:26;15.10;;;10.43;;
12784;SDS011;6456;42.680;23.260;2023-03-04T11:18:58;15.57;;;10.50;;
12784;SDS011;6456;42.680;23.260;2023-03-04T11:21:30;15.80;;;10.30;;
12784;SDS011;6456;42.680;23.260;2023-03-04T11:24:04;12.67;;;9.67;;
12784;SDS011;6456;42.680;23.260;2023-03-04T11:26:37;11.70;;;9.77;;
12784;SDS011;6456;42.680;23.260;2023-03-04T11:29:07;14.53;;;9.67;;
12784;SDS011;6456;42.680;23.260;2023-03-04T11:31:44;13.30;;;9.83;;
12784;SDS011;6456;42.680;23.260;2023-03-04T11:34:14;12.83;;;10.23;;
12784;SDS011;6456;42.680;23.260;2023-03-04T11:36:50;16.47;;;10.50;;
12784;SDS011;6456;42.680;23.260;2023-03-04T11:39:26;13.70;;;9.77;;
12784;SDS011;6456;42.680;23.260;2023-03-04T11:41:59;16.77;;;10.50;;
12784;SDS011;6456;42.680;23.260;2023-03-04T11:44:30;17.30;;;11.33;;
12784;SDS011;6456;42.680;23.260;2023-03-04T11:47:02;14.63;;;11.30;;
12784;SDS011;6456;42.680;23.260;2023-03-04T11:49:44;16.37;;;11.50;;
12784;SDS011;6456;42.680;23.260;2023-03-04T11:52:24;19.20;;;12.10;;
12784;SDS011;6456;42.680;23.260;2023-03-04T11:55:04;16.30;;;12.47;;
12784;SDS011;6456;42.680;23.260;2023-03-04T11:57:48;17.73;;;13.70;;
12784;SDS011;6456;42.680;23.260;2023-03-04T12:00:33;23.77;;;13.80;;
12784;SDS011;6456;42.680;23.260;2023-03-04T12:06:11;19.50;;;14.73;;
12784;SDS011;6456;42.680;23.260;2023-03-04T12:08:52;21.50;;;16.47;;
12784;SDS011;6456;42.680;23.260;2023-03-04T12:11:33;19.70;;;15.53;;
12784;SDS011;6456;42.680;23.260;2023-03-04T12:14:24;19.57;;;14.93;;
12784;SDS011;6456;42.680;23.260;2023-03-04T12:17:00;19.77;;;14.87;;
12784;SDS011;6456;42.680;23.260;2023-03-04T12:22:50;23.27;;;15.47;;
12784;SDS011;6456;42.680;23.260;2023-03-04T12:25:24;19.40;;;14.87;;
12784;SDS011;6456;42.680;23.260;2023-03-04T12:28:08;17.40;;;14.90;;
12784;SDS011;6456;42.680;23.260;2023-03-04T12:30:58;19.43;;;14.87;;
12784;SDS011;6456;42.680;23.260;2023-03-04T12:33:40;19.83;;;14.17;;
12784;SDS011;6456;42.680;23.260;2023-03-04T12:36:18;18.63;;;13.27;;
12784;SDS011;6456;42.680;23.260;2023-03-04T12:38:59;19.90;;;13.73;;
12784;SDS011;6456;42.680;23.260;2023-03-04T12:41:42;18.07;;;13.03;;
12784;SDS011;6456;42.680;23.260;2023-03-04T12:44:15;20.83;;;13.83;;
12784;SDS011;6456;42.680;23.260;2023-03-04T12:46:48;17.40;;;14.13;;
12784;SDS011;6456;42.680;23.260;2023-03-04T12:49:45;17.30;;;13.77;;
12784;SDS011;6456;42.680;23.260;2023-03-04T12:52:24;16.47;;;13.87;;
12784;SDS011;6456;42.680;23.260;2023-03-04T12:55:01;18.30;;;13.97;;
12784;SDS011;6456;42.680;23.260;2023-03-04T12:57:29;17.03;;;12.83;;
12784;SDS011;6456;42.680;23.260;2023-03-04T13:00:08;19.93;;;14.03;;
12784;SDS011;6456;42.680;23.260;2023-03-04T13:02:54;17.93;;;13.63;;
12784;SDS011;6456;42.680;23.260;2023-03-04T13:08:38;19.80;;;13.33;;
12784;SDS011;6456;42.680;23.260;2023-03-04T13:14:23;22.13;;;14.53;;
12784;SDS011;6456;42.680;23.260;2023-03-04T13:16:53;16.83;;;13.10;;
12784;SDS011;6456;42.680;23.260;2023-03-04T13:22:29;18.40;;;13.90;;
12784;SDS011;6456;42.680;23.260;2023-03-04T13:33:51;19.87;;;13.87;;
12784;SDS011;6456;42.680;23.260;2023-03-04T13:39:22;16.60;;;13.30;;
12784;SDS011;6456;42.680;23.260;2023-03-04T13:41:56;18.03;;;13.57;;
12784;SDS011;6456;42.680;23.260;2023-03-04T13:44:31;19.77;;;13.80;;
12784;SDS011;6456;42.680;23.260;2023-03-04T13:47:14;19.23;;;14.00;;
12784;SDS011;6456;42.680;23.260;2023-03-04T13:49:44;17.67;;;13.17;;
12784;SDS011;6456;42.680;23.260;2023-03-04T13:57:56;18.63;;;13.40;;
12784;SDS011;6456;42.680;23.260;2023-03-04T14:00:23;20.40;;;13.90;;
12784;SDS011;6456;42.680;23.260;2023-03-04T14:02:50;20.87;;;13.93;;
12784;SDS011;6456;42.680;23.260;2023-03-04T14:05:19;18.63;;;14.07;;
12784;SDS011;6456;42.680;23.260;2023-03-04T14:07:45;17.30;;;13.43;;
12784;SDS011;6456;42.680;23.260;2023-03-04T14:10:19;21.93;;;14.30;;
12784;SDS011;6456;42.680;23.260;2023-03-04T14:12:49;19.27;;;13.33;;
12784;SDS011;6456;42.680;23.260;2023-03-04T14:15:20;17.87;;;14.13;;
12784;SDS011;6456;42.680;23.260;2023-03-04T14:17:50;19.87;;;14.10;;
12784;SDS011;6456;42.680;23.260;2023-03-04T14:20:26;22.40;;;14.57;;
12784;SDS011;6456;42.680;23.260;2023-03-04T14:22:55;19.57;;;14.50;;
12784;SDS011;6456;42.680;23.260;2023-03-04T14:25:23;21.13;;;14.27;;
12784;SDS011;6456;42.680;23.260;2023-03-04T14:28:00;16.30;;;12.83;;
12784;SDS011;6456;42.680;23.260;2023-03-04T14:30:29;17.90;;;13.80;;
12784;SDS011;6456;42.680;23.260;2023-03-04T14:32:57;18.03;;;14.17;;
12784;SDS011;6456;42.680;23.260;2023-03-04T14:35:27;17.03;;;13.73;;
12784;SDS011;6456;42.680;23.260;2023-03-04T14:37:58;17.67;;;13.83;;
12784;SDS011;6456;42.680;23.260;2023-03-04T14:40:27;18.37;;;13.67;;
12784;SDS011;6456;42.680;23.260;2023-03-04T14:42:58;18.47;;;13.77;;
12784;SDS011;6456;42.680;23.260;2023-03-04T14:45:30;17.43;;;13.63;;
12784;SDS011;6456;42.680;23.260;2023-03-04T14:47:58;15.70;;;12.30;;
12784;SDS011;6456;42.680;23.260;2023-03-04T14:50:31;21.83;;;13.80;;
12784;SDS011;6456;42.680;23.260;2023-03-04T14:55:54;18.57;;;13.40;;
12784;SDS011;6456;42.680;23.260;2023-03-04T14:58:23;18.73;;;13.70;;
12784;SDS011;6456;42.680;23.260;2023-03-04T15:01:01;17.80;;;14.00;;
12784;SDS011;6456;42.680;23.260;2023-03-04T15:03:30;21.47;;;14.83;;
12784;SDS011;6456;42.680;23.260;2023-03-04T15:06:06;18.00;;;13.90;;
12784;SDS011;6456;42.680;23.260;2023-03-04T15:08:42;18.20;;;14.93;;
12784;SDS011;6456;42.680;23.260;2023-03-04T15:11:13;21.30;;;14.43;;
12784;SDS011;6456;42.680;23.260;2023-03-04T15:13:48;19.13;;;13.53;;
12784;SDS011;6456;42.680;23.260;2023-03-04T15:16:17;19.53;;;13.87;;
12784;SDS011;6456;42.680;23.260;2023-03-04T15:18:54;20.37;;;12.63;;